Santa Monica, Texas
Current Conditions -  °F | °C
As of 5:35 PM on Wednesday 22 Oct 2014 (Local Time) from KEBG Reporting Station
Overcast Overcast  
Wind Chill: 82°   Ceiling: 9500
Heat Index: 84°   Visibility: 10mi
Dew Point: 67°   Wind: 13mph
Humidity: 61%   Direction: 90°E
Pressure: 29.98"   Gusts: NA
Location:  26.5112°N, 97.8502°W
Report Text: KEBG 222235Z AUTO 09011KT 10SM SCT070 OVC095 28/20 A2998 RMK AO2 T02750195
Loading
Personal Weather Stations






























Interactive Weather Map
Tropical Storm Tracking
New forecast layout! Learn more

10-Day Weather Forecast

Advertisements
Track Severe Weather on mobile